createdAt,value
2022-11-17T00:02:15.984Z,14.93
2022-11-17T00:04:47.023Z,14.57
2022-11-17T00:07:15.223Z,16.25
2022-11-17T00:09:43.380Z,17.83
2022-11-17T00:12:32.863Z,14.95
2022-11-17T00:15:01.316Z,14.80
2022-11-17T00:17:29.287Z,16.08
2022-11-17T00:20:16.409Z,17.15
2022-11-17T00:22:44.437Z,15.02
2022-11-17T00:25:12.498Z,17.30
2022-11-17T00:27:40.548Z,15.20
2022-11-17T00:30:29.661Z,16.48
2022-11-17T00:33:19.520Z,16.58
2022-11-17T00:35:53.244Z,15.32
2022-11-17T00:38:21.718Z,17.27
2022-11-17T00:40:49.720Z,16.15
2022-11-17T00:43:17.742Z,17.13
2022-11-17T00:45:45.766Z,16.15
2022-11-17T00:48:13.910Z,18.42
2022-11-17T00:50:41.957Z,14.50
2022-11-17T00:53:11.358Z,14.05
2022-11-17T00:55:39.421Z,18.80
2022-11-17T00:58:07.586Z,15.90
2022-11-17T01:00:35.580Z,15.65
2022-11-17T01:03:03.640Z,14.85
2022-11-17T01:05:33.190Z,14.82
2022-11-17T01:08:01.339Z,15.88
2022-11-17T01:10:30.809Z,14.70
2022-11-17T01:12:58.808Z,14.40
2022-11-17T01:15:26.841Z,17.27
2022-11-17T01:17:54.898Z,17.25
2022-11-17T01:20:22.954Z,14.68
2022-11-17T01:22:51.017Z,15.45
2022-11-17T01:25:19.066Z,16.60
2022-11-17T01:27:49.277Z,16.75
2022-11-17T01:30:18.440Z,14.45
2022-11-17T01:32:46.487Z,14.93
2022-11-17T01:35:14.501Z,15.77
2022-11-17T01:37:42.524Z,15.85
2022-11-17T01:40:13.269Z,16.55
2022-11-17T01:42:41.351Z,16.52
2022-11-17T01:45:21.788Z,17.33
2022-11-17T01:47:52.924Z,16.35
2022-11-17T01:50:27.157Z,19.08
2022-11-17T01:52:59.607Z,17.33
2022-11-17T01:55:33.023Z,16.92
2022-11-17T01:58:04.266Z,16.88
2022-11-17T02:00:33.952Z,16.50
2022-11-17T02:03:02.323Z,17.30
2022-11-17T02:05:38.916Z,16.77
2022-11-17T02:08:08.070Z,17.27
2022-11-17T02:10:37.394Z,18.20
2022-11-17T02:13:06.241Z,16.42
2022-11-17T02:15:35.668Z,17.00
2022-11-17T02:18:04.075Z,16.60
2022-11-17T02:20:51.734Z,19.30
2022-11-17T02:23:47.985Z,16.60
2022-11-17T02:26:30.091Z,16.77
2022-11-17T02:29:05.312Z,16.55
2022-11-17T02:31:40.385Z,16.02
2022-11-17T02:34:19.233Z,16.33
2022-11-17T02:36:55.997Z,15.98
2022-11-17T02:39:27.664Z,17.13
2022-11-17T02:42:03.110Z,16.88
2022-11-17T02:44:37.167Z,17.83
2022-11-17T02:47:10.324Z,15.75
2022-11-17T02:49:42.397Z,15.10
2022-11-17T02:52:10.777Z,18.30
2022-11-17T02:54:38.772Z,19.48
2022-11-17T02:57:06.866Z,17.70
2022-11-17T02:59:41.480Z,15.90
2022-11-17T03:02:34.548Z,17.23
2022-11-17T03:05:10.989Z,15.23
2022-11-17T03:08:02.822Z,17.13
2022-11-17T03:10:44.845Z,15.50
2022-11-17T03:13:20.060Z,15.88
2022-11-17T03:15:55.242Z,15.75
2022-11-17T03:18:30.387Z,16.48
2022-11-17T03:21:09.841Z,14.73
2022-11-17T03:23:42.758Z,17.25
2022-11-17T03:26:14.804Z,16.35
2022-11-17T03:28:43.970Z,15.88
2022-11-17T03:31:16.411Z,13.20
2022-11-17T03:33:49.576Z,14.77
2022-11-17T03:36:22.256Z,15.95
2022-11-17T03:38:57.132Z,14.80
2022-11-17T03:41:26.947Z,15.57
2022-11-17T03:43:55.983Z,15.18
2022-11-17T03:46:27.773Z,17.52
2022-11-17T03:49:01.033Z,13.95
2022-11-17T03:51:33.179Z,13.90
2022-11-17T03:54:02.114Z,13.48
2022-11-17T03:56:36.766Z,15.48
2022-11-17T03:59:11.284Z,14.48
2022-11-17T04:01:41.206Z,14.98
2022-11-17T04:04:15.465Z,13.27
2022-11-17T04:06:43.526Z,14.35
2022-11-17T04:09:11.591Z,13.85
2022-11-17T04:11:56.943Z,13.85
2022-11-17T04:14:42.305Z,13.88
2022-11-17T04:17:11.842Z,13.27
2022-11-17T04:19:39.975Z,15.30
2022-11-17T04:22:08.074Z,14.13
2022-11-17T04:24:36.068Z,12.50
2022-11-17T04:27:21.373Z,14.05
2022-11-17T04:29:49.418Z,13.27
2022-11-17T04:32:18.825Z,12.85
2022-11-17T04:34:46.837Z,11.13
2022-11-17T04:37:18.261Z,11.52
2022-11-17T04:39:46.793Z,11.90
2022-11-17T04:42:13.822Z,12.10
2022-11-17T04:44:41.877Z,11.68
2022-11-17T04:47:09.932Z,14.05
2022-11-17T04:49:39.366Z,13.98
2022-11-17T04:52:07.401Z,11.48
2022-11-17T04:54:35.405Z,15.32
2022-11-17T04:57:03.482Z,13.18
2022-11-17T04:59:31.522Z,12.55
2022-11-17T05:02:04.349Z,12.63
2022-11-17T05:04:51.311Z,13.40
2022-11-17T05:07:20.783Z,12.90
2022-11-17T05:09:48.811Z,15.32
2022-11-17T05:12:34.096Z,14.48
2022-11-17T05:15:02.153Z,13.10
2022-11-17T05:17:29.165Z,14.02
2022-11-17T05:19:57.674Z,14.82
2022-11-17T05:22:44.378Z,14.60
2022-11-17T05:25:12.419Z,13.50
2022-11-17T05:27:40.476Z,15.35
2022-11-17T05:30:09.887Z,16.80
2022-11-17T05:32:37.923Z,22.23
2022-11-17T05:35:06.741Z,17.35
2022-11-17T05:37:36.166Z,16.63
2022-11-17T05:40:04.341Z,15.98
2022-11-17T05:42:32.366Z,16.30
2022-11-17T05:45:00.469Z,16.10
2022-11-17T05:47:28.470Z,17.58
2022-11-17T05:49:56.480Z,16.50
2022-11-17T05:52:24.505Z,17.30
2022-11-17T05:54:53.977Z,15.95
2022-11-17T05:57:28.232Z,19.17
2022-11-17T05:59:59.690Z,17.10
2022-11-17T06:02:32.909Z,16.35
2022-11-17T06:05:00.960Z,18.60
2022-11-17T06:07:29.490Z,18.20
2022-11-17T06:09:59.063Z,19.97
2022-11-17T06:12:27.046Z,18.63
2022-11-17T06:14:55.057Z,20.80
2022-11-17T06:17:28.808Z,18.20
2022-11-17T06:20:01.659Z,20.83
2022-11-17T06:22:31.300Z,19.48
2022-11-17T06:25:03.013Z,20.35
2022-11-17T06:27:32.759Z,19.25
2022-11-17T06:30:03.345Z,19.67
2022-11-17T06:32:32.762Z,23.13
2022-11-17T06:35:02.540Z,18.38
2022-11-17T06:37:30.541Z,20.90
2022-11-17T06:39:59.970Z,19.70
2022-11-17T06:42:41.857Z,18.77
2022-11-17T06:45:10.909Z,21.73
2022-11-17T06:47:38.992Z,22.13
2022-11-17T06:50:08.383Z,21.73
2022-11-17T06:52:36.445Z,21.50
2022-11-17T06:55:06.639Z,21.60
2022-11-17T06:57:34.710Z,19.90
2022-11-17T07:00:02.847Z,20.83
2022-11-17T07:02:32.401Z,20.50
2022-11-17T07:05:00.474Z,21.30
2022-11-17T07:07:28.605Z,20.07
2022-11-17T07:09:56.812Z,19.95
2022-11-17T07:12:26.260Z,19.50
2022-11-17T07:14:54.276Z,20.97
2022-11-17T07:17:22.347Z,19.97
2022-11-17T07:19:50.407Z,19.83
2022-11-17T07:22:18.500Z,20.13
2022-11-17T07:24:46.588Z,19.13
2022-11-17T07:27:14.629Z,20.27
2022-11-17T07:29:44.046Z,17.87
2022-11-17T07:32:13.916Z,20.33
2022-11-17T07:34:42.662Z,17.47
2022-11-17T07:37:10.824Z,19.95
2022-11-17T07:39:38.871Z,19.23
2022-11-17T07:42:07.075Z,18.33
2022-11-17T07:44:35.558Z,18.50
2022-11-17T07:47:05.014Z,17.57
2022-11-17T07:49:33.139Z,17.23
2022-11-17T07:52:02.646Z,15.97
2022-11-17T07:54:30.679Z,17.70
2022-11-17T07:56:58.697Z,19.10
2022-11-17T07:59:26.760Z,18.93
2022-11-17T08:01:54.866Z,17.17
2022-11-17T08:04:24.359Z,19.10
2022-11-17T08:06:52.442Z,18.13
2022-11-17T08:09:20.507Z,17.93
2022-11-17T08:11:48.606Z,20.17
2022-11-17T08:14:16.659Z,21.73
2022-11-17T08:16:44.734Z,20.57
2022-11-17T08:19:14.357Z,20.40
2022-11-17T08:21:43.791Z,18.83
2022-11-17T08:24:13.391Z,18.53
2022-11-17T08:26:41.442Z,21.30
2022-11-17T08:29:09.687Z,21.63
2022-11-17T08:31:37.796Z,17.73
2022-11-17T08:34:05.904Z,21.30
2022-11-17T08:36:33.999Z,19.65
2022-11-17T08:39:03.659Z,19.70
2022-11-17T08:41:32.176Z,18.37
2022-11-17T08:44:00.414Z,18.77
2022-11-17T08:46:28.851Z,19.60
2022-11-17T08:48:57.376Z,20.40
2022-11-17T08:51:27.249Z,17.90
2022-11-17T08:53:55.459Z,19.73
2022-11-17T08:56:25.012Z,23.83
2022-11-17T08:58:53.054Z,20.87
2022-11-17T09:01:21.179Z,18.00
2022-11-17T09:03:49.812Z,20.10
2022-11-17T09:06:20.058Z,18.60
2022-11-17T09:08:48.752Z,18.87
2022-11-17T09:11:17.172Z,20.23
2022-11-17T09:13:47.078Z,18.43
2022-11-17T09:16:16.995Z,18.27
2022-11-17T09:18:45.518Z,18.63
2022-11-17T09:21:16.465Z,19.00
2022-11-17T09:23:44.703Z,17.87
2022-11-17T09:26:14.493Z,19.97
2022-11-17T09:28:42.988Z,18.63
2022-11-17T09:31:14.279Z,20.13
2022-11-17T09:33:43.051Z,18.33
2022-11-17T09:36:11.952Z,20.23
2022-11-17T09:38:40.943Z,20.70
2022-11-17T09:41:27.983Z,21.63
2022-11-17T09:44:05.086Z,20.23
2022-11-17T09:46:51.627Z,20.90
2022-11-17T09:49:33.890Z,20.40
2022-11-17T09:52:06.426Z,20.53
2022-11-17T09:54:42.181Z,21.20
2022-11-17T09:57:21.063Z,20.90
2022-11-17T09:59:55.533Z,20.17
2022-11-17T10:02:25.595Z,20.97
2022-11-17T10:04:53.746Z,20.43
2022-11-17T10:07:24.471Z,19.73
2022-11-17T10:09:54.697Z,20.50
2022-11-17T10:12:27.015Z,20.80
2022-11-17T10:14:55.797Z,21.67
2022-11-17T10:17:25.261Z,20.10
2022-11-17T10:19:53.350Z,21.47
2022-11-17T10:22:34.519Z,20.13
2022-11-17T10:25:02.873Z,20.93
2022-11-17T10:27:33.091Z,19.70
2022-11-17T10:30:02.762Z,21.90
2022-11-17T10:32:35.404Z,19.67
2022-11-17T10:35:17.774Z,20.87
2022-11-17T10:37:55.432Z,19.53
2022-11-17T10:40:26.356Z,22.00
2022-11-17T10:43:06.758Z,19.33
2022-11-17T10:45:35.345Z,19.40
2022-11-17T10:48:21.222Z,21.57
2022-11-17T10:50:54.018Z,19.60
2022-11-17T10:53:32.156Z,19.93
2022-11-17T10:56:07.638Z,20.93
2022-11-17T10:59:11.270Z,19.73
2022-11-17T11:01:41.902Z,22.20
2022-11-17T11:04:30.190Z,22.77
2022-11-17T11:07:09.690Z,20.73
2022-11-17T11:09:43.027Z,19.20
2022-11-17T11:12:17.238Z,21.17
2022-11-17T11:14:49.822Z,20.17
2022-11-17T11:17:20.311Z,16.70
2022-11-17T11:19:53.578Z,20.30
2022-11-17T11:22:31.436Z,21.43
2022-11-17T11:25:10.713Z,24.20
2022-11-17T11:27:58.276Z,20.20
2022-11-17T11:30:27.332Z,22.20
2022-11-17T11:33:05.714Z,21.60
2022-11-17T11:35:46.642Z,23.93
2022-11-17T11:38:31.194Z,18.47
2022-11-17T11:41:22.250Z,18.23
2022-11-17T11:44:00.443Z,17.33
2022-11-17T11:46:40.823Z,18.53
2022-11-17T11:49:21.318Z,15.30
2022-11-17T11:51:52.558Z,17.83
2022-11-17T11:54:28.922Z,17.93
2022-11-17T11:56:57.408Z,18.33
2022-11-17T11:59:37.758Z,14.77
2022-11-17T12:02:24.309Z,15.40
2022-11-17T12:05:00.455Z,17.70
2022-11-17T12:07:38.307Z,16.20
2022-11-17T12:10:12.228Z,15.27
2022-11-17T12:12:41.890Z,16.00
2022-11-17T12:15:32.436Z,17.23
2022-11-17T12:18:04.064Z,16.67
2022-11-17T12:21:02.604Z,19.80
2022-11-17T12:24:06.289Z,22.80
2022-11-17T12:26:36.571Z,18.07
2022-11-17T12:29:31.974Z,17.17
2022-11-17T12:32:02.168Z,16.47
2022-11-17T12:34:32.426Z,16.50
2022-11-17T12:37:30.697Z,17.10
2022-11-17T12:40:06.763Z,16.43
2022-11-17T12:42:37.011Z,17.65
2022-11-17T12:45:10.716Z,14.33
2022-11-17T12:47:40.412Z,18.13
2022-11-17T12:50:42.582Z,14.47
2022-11-17T12:53:39.074Z,14.90
2022-11-17T12:56:31.802Z,15.73
2022-11-17T12:59:14.991Z,16.50
2022-11-17T13:01:48.525Z,15.87
2022-11-17T13:04:19.891Z,13.55
2022-11-17T13:07:02.275Z,12.73
2022-11-17T13:09:32.102Z,13.37
2022-11-17T13:12:02.282Z,12.55
2022-11-17T13:14:32.793Z,13.88
2022-11-17T13:17:01.816Z,14.35
2022-11-17T13:19:37.279Z,14.63
2022-11-17T13:22:14.760Z,13.83
2022-11-17T13:24:45.154Z,14.17
2022-11-17T13:27:22.797Z,14.20
2022-11-17T13:29:52.822Z,13.83
2022-11-17T13:32:23.854Z,12.80
2022-11-17T13:34:56.445Z,13.20
2022-11-17T13:37:26.155Z,14.97
2022-11-17T13:39:59.569Z,13.40
2022-11-17T13:42:30.980Z,12.93
2022-11-17T13:45:03.954Z,12.07
2022-11-17T13:47:46.942Z,11.98
2022-11-17T13:50:36.997Z,11.85
2022-11-17T13:53:14.428Z,12.38
2022-11-17T13:55:46.573Z,11.40
2022-11-17T13:58:36.327Z,10.88
2022-11-17T14:01:05.881Z,13.13
2022-11-17T14:03:37.345Z,10.95
2022-11-17T14:06:07.809Z,10.45
2022-11-17T14:08:36.929Z,10.23
2022-11-17T14:11:23.734Z,10.98
2022-11-17T14:13:53.988Z,10.07
2022-11-17T14:16:27.678Z,10.27
2022-11-17T14:19:01.663Z,9.35
2022-11-17T14:21:30.723Z,10.82
2022-11-17T14:24:13.019Z,11.23
2022-11-17T14:26:45.966Z,11.95
2022-11-17T14:29:14.352Z,11.20
2022-11-17T14:31:43.856Z,10.82
2022-11-17T14:34:12.082Z,12.77
2022-11-17T14:36:41.129Z,10.13
2022-11-17T14:39:15.296Z,9.70
2022-11-17T14:41:44.036Z,10.27
2022-11-17T14:44:12.513Z,9.23
2022-11-17T14:46:40.735Z,10.20
2022-11-17T14:49:10.950Z,10.35
2022-11-17T14:51:39.011Z,11.63
2022-11-17T14:54:07.174Z,16.95
2022-11-17T14:56:35.885Z,13.57
2022-11-17T14:59:03.921Z,11.60
2022-11-17T15:01:34.667Z,11.52
2022-11-17T15:04:27.379Z,12.95
2022-11-17T15:06:54.020Z,11.65
2022-11-17T15:09:22.747Z,12.45
2022-11-17T15:11:52.055Z,9.38
2022-11-17T15:14:20.369Z,9.35
2022-11-17T15:16:48.389Z,10.30
2022-11-17T15:19:16.439Z,10.38
2022-11-17T15:21:44.513Z,9.23
2022-11-17T15:24:14.262Z,10.95
2022-11-17T15:26:44.454Z,10.77
2022-11-17T15:29:15.278Z,13.27
2022-11-17T15:31:43.641Z,14.95
2022-11-17T15:34:15.674Z,15.50
2022-11-17T15:36:47.930Z,12.00
2022-11-17T15:39:17.964Z,11.50
2022-11-17T15:41:46.450Z,10.98
2022-11-17T15:44:14.911Z,9.52
2022-11-17T15:46:47.329Z,10.30
2022-11-17T15:49:16.091Z,10.68
2022-11-17T15:51:44.342Z,12.05
2022-11-17T15:54:18.484Z,10.88
2022-11-17T15:56:50.940Z,11.30
2022-11-17T15:59:19.471Z,12.03
2022-11-17T16:01:47.902Z,12.20
2022-11-17T16:04:16.761Z,11.50
2022-11-17T16:06:46.338Z,11.93
2022-11-17T16:09:15.766Z,12.20
2022-11-17T16:11:44.655Z,12.38
2022-11-17T16:14:14.944Z,12.57
2022-11-17T16:16:43.803Z,10.57
2022-11-17T16:19:11.875Z,11.50
2022-11-17T16:21:39.968Z,13.07
2022-11-17T16:24:11.440Z,10.85
2022-11-17T16:26:39.618Z,12.00
2022-11-17T16:29:08.929Z,13.75
2022-11-17T16:31:38.976Z,11.15
2022-11-17T16:34:09.022Z,11.35
2022-11-17T16:36:39.942Z,14.35
2022-11-17T16:39:10.231Z,12.25
2022-11-17T16:41:40.855Z,11.98
2022-11-17T16:44:11.856Z,12.52
2022-11-17T16:46:43.590Z,15.85
2022-11-17T16:49:14.701Z,14.25
2022-11-17T16:51:48.361Z,15.50
2022-11-17T16:54:16.701Z,16.40
2022-11-17T16:56:44.923Z,13.90
2022-11-17T16:59:13.343Z,14.13
2022-11-17T17:01:42.981Z,13.35
2022-11-17T17:04:12.857Z,14.55
2022-11-17T17:06:41.855Z,13.57
2022-11-17T17:09:12.096Z,13.40
2022-11-17T17:11:40.781Z,15.40
2022-11-17T17:14:12.578Z,13.75
2022-11-17T17:16:43.744Z,13.18
2022-11-17T17:19:13.482Z,14.02
2022-11-17T17:21:43.698Z,14.07
2022-11-17T17:24:12.201Z,13.77
2022-11-17T17:26:41.152Z,12.68
2022-11-17T17:29:09.714Z,13.13
2022-11-17T17:31:40.107Z,13.85
2022-11-17T17:34:10.130Z,13.38
2022-11-17T17:36:38.640Z,16.05
2022-11-17T17:39:07.717Z,15.18
2022-11-17T17:41:41.014Z,14.65
2022-11-17T17:44:09.518Z,16.02
2022-11-17T17:46:39.147Z,15.93
2022-11-17T17:49:08.913Z,14.15
2022-11-17T17:51:40.105Z,15.25
2022-11-17T17:54:08.491Z,15.25
2022-11-17T17:56:36.562Z,13.88
2022-11-17T17:59:04.642Z,28.10
2022-11-17T18:01:34.132Z,16.15
2022-11-17T18:04:04.814Z,16.60
2022-11-17T18:06:37.424Z,17.40
2022-11-17T18:09:06.378Z,15.50
2022-11-17T18:11:34.674Z,15.23
2022-11-17T18:14:03.062Z,16.15
2022-11-17T18:16:33.301Z,14.48
2022-11-17T18:19:02.669Z,14.40
2022-11-17T18:21:31.130Z,14.15
2022-11-17T18:24:03.073Z,15.18
2022-11-17T18:26:33.184Z,15.35
2022-11-17T18:29:02.650Z,15.52
2022-11-17T18:31:32.343Z,16.23
2022-11-17T18:34:02.412Z,16.95
2022-11-17T18:36:31.705Z,14.90
2022-11-17T18:39:01.222Z,16.73
2022-11-17T18:41:30.913Z,15.35
2022-11-17T18:43:59.214Z,16.48
2022-11-17T18:46:29.406Z,15.75
2022-11-17T18:48:57.998Z,17.08
2022-11-17T18:51:27.746Z,17.13
2022-11-17T18:53:57.438Z,15.27
2022-11-17T18:56:29.359Z,16.17
2022-11-17T18:58:57.614Z,14.32
2022-11-17T19:01:27.947Z,14.88
2022-11-17T19:03:58.076Z,17.50
2022-11-17T19:06:26.861Z,15.10
2022-11-17T19:08:55.190Z,15.68
2022-11-17T19:11:24.021Z,16.20
2022-11-17T19:13:53.430Z,17.25
2022-11-17T19:16:23.724Z,16.75
2022-11-17T19:18:53.564Z,14.88
2022-11-17T19:21:23.548Z,17.38
2022-11-17T19:23:52.475Z,16.15
2022-11-17T19:26:22.103Z,16.05
2022-11-17T19:28:50.859Z,15.60
2022-11-17T19:31:21.223Z,17.02
2022-11-17T19:33:50.157Z,15.90
2022-11-17T19:36:20.185Z,14.48
2022-11-17T19:38:50.061Z,15.82
2022-11-17T19:41:20.399Z,16.83
2022-11-17T19:43:50.159Z,15.60
2022-11-17T19:46:18.351Z,16.50
2022-11-17T19:48:47.866Z,16.58
2022-11-17T19:51:18.621Z,15.60
2022-11-17T19:53:47.195Z,15.65
2022-11-17T19:56:15.377Z,16.88
2022-11-17T19:58:43.800Z,17.08
2022-11-17T20:01:13.787Z,15.10
2022-11-17T20:03:43.039Z,15.57
2022-11-17T20:06:13.718Z,18.23
2022-11-17T20:08:42.045Z,16.95
2022-11-17T20:11:12.402Z,15.15
2022-11-17T20:13:41.482Z,15.70
2022-11-17T20:16:12.756Z,17.77
2022-11-17T20:18:41.793Z,15.60
2022-11-17T20:21:13.972Z,17.83
2022-11-17T20:23:43.519Z,16.52
2022-11-17T20:26:14.114Z,16.98
2022-11-17T20:28:42.333Z,17.73
2022-11-17T20:31:12.024Z,16.95
2022-11-17T20:33:41.015Z,16.55
2022-11-17T20:36:11.963Z,16.90
2022-11-17T20:38:41.522Z,16.48
2022-11-17T20:41:10.294Z,15.00
2022-11-17T20:43:38.534Z,17.75
2022-11-17T20:46:06.918Z,15.80
2022-11-17T20:48:35.981Z,15.55
2022-11-17T20:51:06.190Z,15.82
2022-11-17T20:53:34.762Z,14.82
2022-11-17T20:56:06.576Z,16.13
2022-11-17T20:58:34.878Z,16.08
2022-11-17T21:01:09.409Z,15.50
2022-11-17T21:03:37.743Z,15.57
2022-11-17T21:06:06.414Z,16.52
2022-11-17T21:08:36.174Z,15.75
2022-11-17T21:11:07.121Z,16.10
2022-11-17T21:13:36.945Z,15.30
2022-11-17T21:16:10.563Z,14.63
2022-11-17T21:18:40.090Z,15.40
2022-11-17T21:21:09.661Z,14.93
2022-11-17T21:23:38.293Z,15.27
2022-11-17T21:26:08.710Z,15.48
2022-11-17T21:28:38.278Z,15.13
2022-11-17T21:31:10.421Z,15.23
2022-11-17T21:33:39.534Z,15.93
2022-11-17T21:36:09.359Z,16.27
2022-11-17T21:38:37.867Z,14.85
2022-11-17T21:41:09.237Z,14.95
2022-11-17T21:43:37.917Z,15.23
2022-11-17T21:46:07.796Z,15.10
2022-11-17T21:48:36.548Z,15.23
2022-11-17T21:51:04.954Z,16.17
2022-11-17T21:53:33.178Z,15.80
2022-11-17T21:56:02.402Z,16.25
2022-11-17T21:58:31.996Z,16.80
2022-11-17T22:01:06.349Z,15.43
2022-11-17T22:03:34.579Z,16.25
2022-11-17T22:06:15.103Z,16.60
2022-11-17T22:08:44.689Z,17.30
2022-11-17T22:11:13.992Z,17.08
2022-11-17T22:13:43.846Z,17.23
2022-11-17T22:16:13.270Z,19.33
2022-11-17T22:18:42.243Z,17.83
2022-11-17T22:21:10.273Z,18.42
2022-11-17T22:23:38.394Z,17.23
2022-11-17T22:26:07.406Z,17.90
2022-11-17T22:28:35.414Z,17.00
2022-11-17T22:31:08.090Z,17.13
2022-11-17T22:33:39.999Z,15.90
2022-11-17T22:36:09.265Z,20.90
2022-11-17T22:38:37.298Z,16.58
2022-11-17T22:41:07.393Z,15.48
2022-11-17T22:43:35.502Z,15.93
2022-11-17T22:46:05.687Z,14.13
2022-11-17T22:48:36.747Z,14.23
2022-11-17T22:51:05.793Z,14.32
2022-11-17T22:53:34.390Z,14.35
2022-11-17T22:56:04.476Z,16.63
2022-11-17T22:58:32.830Z,15.18
2022-11-17T23:01:05.319Z,14.80
2022-11-17T23:03:35.058Z,14.85
2022-11-17T23:06:03.707Z,14.63
2022-11-17T23:08:32.201Z,13.80
2022-11-17T23:11:34.848Z,13.95
2022-11-17T23:13:51.594Z,13.60
2022-11-17T23:16:19.693Z,13.50
2022-11-17T23:18:49.106Z,16.10
2022-11-17T23:21:17.142Z,13.82
2022-11-17T23:23:45.194Z,12.90
2022-11-17T23:26:13.771Z,17.48
2022-11-17T23:28:43.318Z,13.35
2022-11-17T23:31:13.595Z,16.23
2022-11-17T23:33:43.193Z,15.13
2022-11-17T23:36:15.662Z,14.60
2022-11-17T23:38:44.453Z,12.75
2022-11-17T23:41:15.084Z,15.88
2022-11-17T23:43:43.535Z,13.65
2022-11-17T23:46:14.025Z,14.88
2022-11-17T23:48:42.293Z,15.38
2022-11-17T23:51:12.839Z,15.32
2022-11-17T23:53:42.523Z,15.00
2022-11-17T23:56:11.948Z,15.05
2022-11-17T23:58:40.262Z,16.02
